»·PEaware :: SWA493 KSEA-KSFO

SWA493 :: KSEA-KSFO

FLIGHT INFORMATION

Flight Status: Arrived
Operator:
Southwest Airlines
More flights by this operator :: More flights under this callsign
Pilot: Steve F. (26981)
Aircraft: BOEING 737-900
(B739)
More flights by this aircraft type
Origin: KSEA Seattle-Tacoma Intl
United States
Destination: KSFO San Francisco Intl
United States
More flights between these airports :: More routes between these airports
Route: HAROB6 ERAVE Q1 ETCHY MLBEC BDEGA3
File this flight plan on PilotEdge
Remarks:
Altitude:
(Current/Filed)
33,000ft
Speed:
(Current/Filed)
453kts
Departed: 01-Sep-23 08:19 AM
Arrived: 01-Sep-23 09:54 AM
Distance/Time
Traveled:
590nm/1:35
Distance/Time
To Go:
Arrived

Flight Plot

Page will automatically refresh every two minutes.

Flight plan parsing failed; only flown route is shown


Map Options




Map Legend


Flown Route
Filed Route
Departure Airport
Arrival Airport
Navaid (VOR, NDB)
Fix

Horizontal Profiles

Position Reports

Time Latitude Longitude Heading Altitude Ground
Speed
01-Sep-23 07:55 47.440294 -122.303719 355 441ft 0kts
01-Sep-23 07:56 47.440294 -122.303719 355 441ft 0kts
01-Sep-23 07:57 47.440294 -122.303719 355 441ft 0kts
01-Sep-23 07:58 47.440294 -122.303719 355 441ft 0kts
01-Sep-23 07:59 47.440294 -122.303719 355 441ft 0kts
01-Sep-23 08:00 47.440294 -122.303719 355 441ft 0kts
01-Sep-23 08:01 47.440294 -122.303719 355 441ft 0kts
01-Sep-23 08:02 47.440294 -122.303719 355 441ft 0kts
01-Sep-23 08:03 47.440294 -122.303719 355 441ft 0kts
01-Sep-23 08:04 47.440294 -122.303719 355 441ft 0kts
01-Sep-23 08:05 47.440294 -122.303719 355 441ft 0kts
01-Sep-23 08:06 47.440294 -122.303719 355 441ft 0kts
01-Sep-23 08:07 47.440294 -122.303719 355 441ft 0kts
01-Sep-23 08:08 47.440294 -122.303719 355 441ft 0kts
01-Sep-23 08:09 47.440294 -122.303719 355 441ft 0kts
01-Sep-23 08:10 47.440294 -122.303719 355 441ft 0kts
01-Sep-23 08:11 47.439878 -122.303676 355 441ft 2kts
01-Sep-23 08:12 47.439666 -122.303576 318 441ft 0kts
01-Sep-23 08:13 47.439666 -122.303576 318 441ft 0kts
01-Sep-23 08:14 47.439700 -122.304336 269 441ft 10kts
01-Sep-23 08:15 47.436917 -122.306189 179 441ft 17kts
01-Sep-23 08:16 47.432141 -122.305717 200 441ft 16kts
01-Sep-23 08:17 47.432146 -122.307993 0 441ft 15kts
01-Sep-23 08:18 47.468702 -122.307961 0 1591ft 190kts
01-Sep-23 08:19 47.533735 -122.311256 356 4566ft 267kts
01-Sep-23 08:20 47.600424 -122.357374 308 8143ft 283kts
01-Sep-23 08:21 47.617267 -122.471470 252 11108ft 308kts
01-Sep-23 08:22 47.554202 -122.573017 222 12544ft 374kts
01-Sep-23 08:23 47.477484 -122.685987 225 14943ft 399kts
01-Sep-23 08:24 47.398869 -122.806534 225 17376ft 417kts
01-Sep-23 08:25 47.316019 -122.931465 225 19545ft 435kts
01-Sep-23 08:26 47.227154 -123.058955 218 21210ft 457kts
01-Sep-23 08:27 47.123280 -123.171837 217 22801ft 472kts
01-Sep-23 08:28 47.016145 -123.287390 217 24163ft 485kts
01-Sep-23 08:29 46.899567 -123.391289 195 25241ft 502kts
01-Sep-23 08:30 46.759508 -123.399715 175 26234ft 511kts
01-Sep-23 08:31 46.615614 -123.392798 176 27126ft 522kts
01-Sep-23 08:32 46.468950 -123.387912 176 27913ft 532kts
01-Sep-23 08:33 46.320382 -123.383292 176 28885ft 536kts
01-Sep-23 08:34 46.170246 -123.378667 176 29815ft 540kts
01-Sep-23 08:35 46.020230 -123.374075 176 30882ft 539kts
01-Sep-23 08:36 45.872056 -123.369558 176 32217ft 530kts
01-Sep-23 08:37 45.725369 -123.365115 176 33232ft 526kts
01-Sep-23 08:38 45.579584 -123.360723 176 34113ft 523kts
01-Sep-23 08:39 45.436903 -123.356451 177 35031ft 517kts
01-Sep-23 08:40 45.293598 -123.352173 177 35785ft 513kts
01-Sep-23 08:41 45.151470 -123.347953 177 36490ft 509kts
01-Sep-23 08:42 45.010530 -123.343796 177 36895ft 507kts
01-Sep-23 08:43 44.870277 -123.339659 177 36899ft 504kts
01-Sep-23 08:44 44.730083 -123.335563 177 36902ft 503kts
01-Sep-23 08:45 44.590102 -123.331499 177 36899ft 503kts
01-Sep-23 08:46 44.450013 -123.326972 176 36900ft 503kts
01-Sep-23 08:47 44.310001 -123.321293 176 36898ft 503kts
01-Sep-23 08:48 44.169788 -123.315691 176 36891ft 504kts
01-Sep-23 08:49 44.029591 -123.310080 176 36889ft 504kts
01-Sep-23 08:50 43.889669 -123.304540 177 36886ft 500kts
01-Sep-23 08:51 43.751076 -123.299076 177 36879ft 500kts
01-Sep-23 08:52 43.612035 -123.293636 177 36876ft 499kts
01-Sep-23 08:53 43.473576 -123.288233 177 36872ft 497kts
01-Sep-23 08:54 43.335345 -123.282859 177 36871ft 495kts
01-Sep-23 08:55 43.197621 -123.277525 177 36870ft 494kts
01-Sep-23 08:56 43.060846 -123.272267 177 36872ft 493kts
01-Sep-23 08:57 42.923666 -123.267011 177 36877ft 491kts
01-Sep-23 08:58 42.787279 -123.261797 177 36886ft 490kts
01-Sep-23 08:59 42.650725 -123.256606 177 36895ft 491kts
01-Sep-23 09:00 42.514192 -123.251453 178 36885ft 490kts
01-Sep-23 09:01 42.377665 -123.246385 178 36863ft 490kts
01-Sep-23 09:02 42.241324 -123.241372 178 36854ft 491kts
01-Sep-23 09:03 42.104485 -123.236344 178 36850ft 491kts
01-Sep-23 09:04 41.968084 -123.231336 178 36848ft 490kts
01-Sep-23 09:05 41.832254 -123.226389 178 36846ft 488kts
01-Sep-23 09:06 41.696598 -123.221483 178 36845ft 488kts
01-Sep-23 09:07 41.561297 -123.216669 178 36845ft 486kts
01-Sep-23 09:08 41.426344 -123.212008 178 36837ft 485kts
01-Sep-23 09:09 41.291459 -123.207700 179 36839ft 484kts
01-Sep-23 09:10 41.156794 -123.204350 179 36844ft 483kts
01-Sep-23 09:11 41.022550 -123.200975 179 36843ft 482kts
01-Sep-23 09:12 40.888585 -123.197588 179 36835ft 482kts
01-Sep-23 09:13 40.754559 -123.194229 180 36834ft 482kts
01-Sep-23 09:14 40.620350 -123.190870 180 36834ft 482kts
01-Sep-23 09:15 40.486202 -123.187544 180 36834ft 482kts
01-Sep-23 09:16 40.352273 -123.184229 180 36833ft 482kts
01-Sep-23 09:17 40.217672 -123.180894 180 36832ft 483kts
01-Sep-23 09:18 40.083503 -123.177603 180 36827ft 483kts
01-Sep-23 09:19 39.949169 -123.174310 180 36827ft 483kts
01-Sep-23 09:20 39.815023 -123.167959 180 36827ft 482kts
01-Sep-23 09:21 39.680749 -123.161708 180 36832ft 482kts
01-Sep-23 09:22 39.547345 -123.155546 180 36832ft 481kts
01-Sep-23 09:23 39.413813 -123.149422 180 36832ft 480kts
01-Sep-23 09:24 39.280303 -123.143311 180 36792ft 481kts
01-Sep-23 09:25 39.146356 -123.137208 180 34998ft 479kts
01-Sep-23 09:26 39.020507 -123.078740 149 32400ft 491kts
01-Sep-23 09:27 38.906376 -122.985373 154 29803ft 478kts
01-Sep-23 09:28 38.785291 -122.931664 171 27200ft 449kts
01-Sep-23 09:29 38.667256 -122.897490 171 25358ft 417kts
01-Sep-23 09:30 38.557663 -122.865232 171 24038ft 402kts
01-Sep-23 09:31 38.449503 -122.833308 171 22407ft 391kts
01-Sep-23 09:32 38.345002 -122.802667 171 20808ft 381kts
01-Sep-23 09:33 38.243568 -122.773058 171 19208ft 368kts
01-Sep-23 09:34 38.144340 -122.744069 171 17224ft 362kts
01-Sep-23 09:36 38.047989 -122.716150 171 15225ft 349kts
01-Sep-23 09:37 37.954687 -122.689185 170 13225ft 339kts
01-Sep-23 09:38 37.870375 -122.643973 144 11825ft 334kts
01-Sep-23 09:39 37.800983 -122.568687 143 10975ft 309kts
01-Sep-23 09:40 37.737784 -122.502003 144 10988ft 296kts
01-Sep-23 09:41 37.674962 -122.435136 143 10557ft 291kts
01-Sep-23 09:42 37.612930 -122.369445 144 8886ft 290kts
01-Sep-23 09:43 37.544106 -122.320035 156 7371ft 281kts
01-Sep-23 09:44 37.475082 -122.276133 156 7009ft 279kts
01-Sep-23 09:45 37.407928 -122.229036 133 6929ft 265kts
01-Sep-23 09:46 37.400867 -122.144426 65 5985ft 250kts
01-Sep-23 09:47 37.455172 -122.101076 5 4498ft 235kts
01-Sep-23 09:48 37.513669 -122.105614 304 3916ft 184kts
01-Sep-23 09:49 37.535001 -122.162115 291 3606ft 184kts
01-Sep-23 09:50 37.556314 -122.220863 293 2397ft 183kts
01-Sep-23 09:51 37.578974 -122.274857 293 1452ft 156kts
01-Sep-23 09:52 37.598081 -122.320198 296 755ft 137kts
01-Sep-23 09:53 37.616086 -122.363157 294 23ft 130kts
01-Sep-23 09:54 37.622241 -122.380501 276 21ft 21kts
01-Sep-23 09:55 37.622185 -122.384850 272 21ft 8kts
01-Sep-23 09:56 37.621580 -122.386300 161 21ft 10kts
01-Sep-23 09:57 37.619506 -122.384781 115 21ft 0kts
01-Sep-23 09:58 37.619506 -122.384780 115 21ft 0kts
01-Sep-23 09:59 37.619506 -122.384780 115 21ft 0kts
01-Sep-23 10:00 37.619506 -122.384780 115 21ft 0kts
01-Sep-23 10:01 37.619506 -122.384780 115 21ft 0kts
01-Sep-23 10:01 37.619506 -122.384780 115 21ft 0kts
01-Sep-23 10:02 37.619506 -122.384780 115 21ft 0kts
01-Sep-23 10:04 37.619506 -122.384780 115 21ft 0kts
01-Sep-23 10:05 37.619506 -122.384780 115 21ft 0kts
01-Sep-23 10:05 37.619506 -122.384780 115 21ft 0kts
01-Sep-23 10:06 37.619506 -122.384780 115 21ft 0kts
01-Sep-23 10:07 37.619506 -122.384780 115 21ft 0kts

Navigation Log

Ident Type
Flight plan parsing failed, navigation log unavailable